createdAt,value
2023-04-30T00:00:15.445Z,23.89
2023-04-30T00:01:15.343Z,23.88
2023-04-30T00:02:15.309Z,23.89
2023-04-30T00:03:15.277Z,23.88
2023-04-30T00:04:15.145Z,23.87
2023-04-30T00:05:14.993Z,23.88
2023-04-30T00:06:14.963Z,23.88
2023-04-30T00:07:14.819Z,23.88
2023-04-30T00:08:14.821Z,23.87
2023-04-30T00:09:14.746Z,23.87
2023-04-30T00:10:14.669Z,23.87
2023-04-30T00:11:14.569Z,23.87
2023-04-30T00:12:14.479Z,23.87
2023-04-30T00:13:14.390Z,23.86
2023-04-30T00:14:14.336Z,23.87
2023-04-30T00:15:14.236Z,23.87
2023-04-30T00:16:14.221Z,23.87
2023-04-30T00:17:14.039Z,23.86
2023-04-30T00:18:13.966Z,23.87
2023-04-30T00:19:13.861Z,23.86
2023-04-30T00:20:13.778Z,23.87
2023-04-30T00:21:13.698Z,23.86
2023-04-30T00:22:13.591Z,23.86
2023-04-30T00:23:13.496Z,23.86
2023-04-30T00:24:13.432Z,23.87
2023-04-30T00:25:13.322Z,23.85
2023-04-30T00:26:13.301Z,23.86
2023-04-30T00:27:13.157Z,23.86
2023-04-30T00:28:13.075Z,23.86
2023-04-30T00:29:12.991Z,23.85
2023-04-30T00:30:12.908Z,23.85
2023-04-30T00:31:12.822Z,23.85
2023-04-30T00:32:12.756Z,23.85
2023-04-30T00:33:12.668Z,23.85
2023-04-30T00:34:12.663Z,23.85
2023-04-30T00:35:12.572Z,23.85
2023-04-30T00:36:12.487Z,23.85
2023-04-30T00:37:12.438Z,23.85
2023-04-30T00:38:12.313Z,23.84
2023-04-30T00:39:12.227Z,23.84
2023-04-30T00:40:12.238Z,23.84
2023-04-30T00:41:12.265Z,23.84
2023-04-30T00:42:12.183Z,23.84
2023-04-30T00:43:12.074Z,23.84
2023-04-30T00:44:11.988Z,23.84
2023-04-30T00:45:11.934Z,23.84
2023-04-30T00:46:11.853Z,23.84
2023-04-30T00:47:11.820Z,23.83
2023-04-30T00:48:11.834Z,23.84
2023-04-30T00:49:11.751Z,23.84
2023-04-30T00:50:11.659Z,23.83
2023-04-30T00:51:11.592Z,23.83
2023-04-30T00:52:11.493Z,23.84
2023-04-30T00:53:11.411Z,23.84
2023-04-30T00:54:11.433Z,23.83
2023-04-30T00:55:11.354Z,23.84
2023-04-30T00:56:11.279Z,23.83
2023-04-30T00:57:11.191Z,23.83
2023-04-30T00:58:11.123Z,23.84
2023-04-30T00:59:11.029Z,23.83
2023-04-30T01:00:11.071Z,23.83
2023-04-30T01:01:10.927Z,23.83
2023-04-30T01:02:10.854Z,23.82
2023-04-30T01:03:10.880Z,23.82
2023-04-30T01:04:10.694Z,23.83
2023-04-30T01:05:10.583Z,23.83
2023-04-30T01:06:10.534Z,23.83
2023-04-30T01:07:10.430Z,23.83
2023-04-30T01:08:10.327Z,23.83
2023-04-30T01:09:10.241Z,23.83
2023-04-30T01:10:10.166Z,23.83
2023-04-30T01:11:10.061Z,23.83
2023-04-30T01:12:09.993Z,23.83
2023-04-30T01:13:09.920Z,23.83
2023-04-30T01:14:09.863Z,23.83
2023-04-30T01:15:09.733Z,23.83
2023-04-30T01:16:09.693Z,23.83
2023-04-30T01:17:09.585Z,23.83
2023-04-30T01:18:09.561Z,23.83
2023-04-30T01:19:09.447Z,23.83
2023-04-30T01:20:09.366Z,23.83
2023-04-30T01:21:09.271Z,23.83
2023-04-30T01:22:09.175Z,23.84
2023-04-30T01:23:09.094Z,23.83
2023-04-30T01:24:09.042Z,23.83
2023-04-30T01:25:08.968Z,23.83
2023-04-30T01:26:08.869Z,23.83
2023-04-30T01:27:08.786Z,23.83
2023-04-30T01:28:08.715Z,23.84
2023-04-30T01:29:08.615Z,23.83
2023-04-30T01:30:08.519Z,23.83
2023-04-30T01:31:08.453Z,23.83
2023-04-30T01:32:08.341Z,23.83
2023-04-30T01:33:08.346Z,23.83
2023-04-30T01:34:08.186Z,23.83
2023-04-30T01:35:08.102Z,23.83
2023-04-30T01:36:08.018Z,23.83
2023-04-30T01:37:07.929Z,23.83
2023-04-30T01:38:07.847Z,23.83
2023-04-30T01:39:07.770Z,23.82
2023-04-30T01:40:07.709Z,23.83
2023-04-30T01:41:07.630Z,23.83
2023-04-30T01:42:07.539Z,23.83
2023-04-30T01:43:07.459Z,23.82
2023-04-30T01:44:07.428Z,23.82
2023-04-30T01:45:07.340Z,23.83
2023-04-30T01:46:07.312Z,23.82
2023-04-30T01:47:07.171Z,23.82
2023-04-30T01:48:07.136Z,23.82
2023-04-30T01:49:07.059Z,23.82
2023-04-30T01:50:06.951Z,23.82
2023-04-30T01:51:06.869Z,23.82
2023-04-30T01:52:06.790Z,23.82
2023-04-30T01:53:06.716Z,23.83
2023-04-30T01:54:06.641Z,23.83
2023-04-30T01:55:06.556Z,23.83
2023-04-30T01:56:06.459Z,23.83
2023-04-30T01:57:06.437Z,23.83
2023-04-30T01:58:06.287Z,23.83
2023-04-30T01:59:06.243Z,23.82
2023-04-30T02:00:06.148Z,23.83
2023-04-30T02:01:06.107Z,23.83
2023-04-30T02:02:05.965Z,23.83
2023-04-30T02:03:05.972Z,23.84
2023-04-30T02:04:05.879Z,23.84
2023-04-30T02:05:05.696Z,23.84
2023-04-30T02:06:05.663Z,23.84
2023-04-30T02:07:05.548Z,23.84
2023-04-30T02:08:05.456Z,23.83
2023-04-30T02:09:05.389Z,23.84
2023-04-30T02:10:05.281Z,23.84
2023-04-30T02:11:05.190Z,23.84
2023-04-30T02:12:05.151Z,23.85
2023-04-30T02:13:05.076Z,23.85
2023-04-30T02:14:04.988Z,23.84
2023-04-30T02:15:04.896Z,23.84
2023-04-30T02:16:04.845Z,23.84
2023-04-30T02:17:04.749Z,23.84
2023-04-30T02:18:04.725Z,23.84
2023-04-30T02:19:04.574Z,23.84
2023-04-30T02:20:04.493Z,23.83
2023-04-30T02:21:04.402Z,23.84
2023-04-30T02:22:04.403Z,23.83
2023-04-30T02:23:04.309Z,23.83
2023-04-30T02:24:04.230Z,23.84
2023-04-30T02:25:04.135Z,23.83
2023-04-30T02:26:04.058Z,23.83
2023-04-30T02:27:03.966Z,23.84
2023-04-30T02:28:03.866Z,23.85
2023-04-30T02:29:03.785Z,23.84
2023-04-30T02:30:03.704Z,23.84
2023-04-30T02:31:03.628Z,23.84
2023-04-30T02:32:03.572Z,23.84
2023-04-30T02:33:03.492Z,23.84
2023-04-30T02:34:03.382Z,23.84
2023-04-30T02:35:03.286Z,23.83
2023-04-30T02:36:03.280Z,23.83
2023-04-30T02:37:03.181Z,23.84
2023-04-30T02:38:03.094Z,23.84
2023-04-30T02:39:03.028Z,23.84
2023-04-30T02:40:02.951Z,23.83
2023-04-30T02:41:02.860Z,23.84
2023-04-30T02:42:02.788Z,23.84
2023-04-30T02:43:02.718Z,23.84
2023-04-30T02:44:02.659Z,23.84
2023-04-30T02:45:02.532Z,23.84
2023-04-30T02:46:02.509Z,23.83
2023-04-30T02:47:02.432Z,23.83
2023-04-30T02:48:02.397Z,23.83
2023-04-30T02:49:02.254Z,23.84
2023-04-30T02:50:02.169Z,23.84
2023-04-30T02:51:02.084Z,23.84
2023-04-30T02:52:02.015Z,23.84
2023-04-30T02:53:01.923Z,23.84
2023-04-30T02:54:01.837Z,23.83
2023-04-30T02:55:01.773Z,23.83
2023-04-30T02:56:01.670Z,23.83
2023-04-30T02:57:01.664Z,23.84
2023-04-30T02:58:01.573Z,23.84
2023-04-30T02:59:01.480Z,23.83
2023-04-30T03:00:01.413Z,23.83
2023-04-30T03:01:01.322Z,23.83
2023-04-30T03:02:01.227Z,23.83
2023-04-30T03:03:01.226Z,23.83
2023-04-30T03:04:01.057Z,23.84
2023-04-30T03:05:00.978Z,23.83
2023-04-30T03:06:00.920Z,23.83
2023-04-30T03:07:00.812Z,23.83
2023-04-30T03:08:00.723Z,23.84
2023-04-30T03:09:00.657Z,23.83
2023-04-30T03:10:00.584Z,23.83
2023-04-30T03:11:00.514Z,23.83
2023-04-30T03:12:00.403Z,23.83
2023-04-30T03:13:00.311Z,23.83
2023-04-30T03:14:00.211Z,23.82
2023-04-30T03:15:00.183Z,23.83
2023-04-30T03:16:00.203Z,23.83
2023-04-30T03:17:00.005Z,23.82
2023-04-30T03:17:59.971Z,23.82
2023-04-30T03:18:59.891Z,23.83
2023-04-30T03:19:59.747Z,23.83
2023-04-30T03:20:59.671Z,23.82
2023-04-30T03:21:59.577Z,23.83
2023-04-30T03:22:59.472Z,23.83
2023-04-30T03:23:59.392Z,23.82
2023-04-30T03:24:59.292Z,23.83
2023-04-30T03:25:59.215Z,23.83
2023-04-30T03:26:59.135Z,23.83
2023-04-30T03:27:59.045Z,23.83
2023-04-30T03:28:58.964Z,23.83
2023-04-30T03:29:58.884Z,23.84
2023-04-30T03:30:58.788Z,23.83
2023-04-30T03:31:58.815Z,23.83
2023-04-30T03:32:58.677Z,23.83
2023-04-30T03:33:58.582Z,23.83
2023-04-30T03:34:58.458Z,23.84
2023-04-30T03:35:58.377Z,23.83
2023-04-30T03:36:58.297Z,23.83
2023-04-30T03:37:58.200Z,23.83
2023-04-30T03:38:58.109Z,23.83
2023-04-30T03:39:58.023Z,23.83
2023-04-30T03:40:57.929Z,23.83
2023-04-30T03:41:57.856Z,23.83
2023-04-30T03:42:57.767Z,23.83
2023-04-30T03:43:57.676Z,23.83
2023-04-30T03:44:57.585Z,23.83
2023-04-30T03:45:57.556Z,23.84
2023-04-30T03:46:57.406Z,23.83
2023-04-30T03:47:57.390Z,23.83
2023-04-30T03:48:57.228Z,23.84
2023-04-30T03:49:57.277Z,23.83
2023-04-30T03:50:57.056Z,23.83
2023-04-30T03:51:56.975Z,23.83
2023-04-30T03:52:56.899Z,23.84
2023-04-30T03:53:56.813Z,23.84
2023-04-30T03:54:56.734Z,23.84
2023-04-30T03:55:56.652Z,23.83
2023-04-30T03:56:56.568Z,23.84
2023-04-30T03:57:56.483Z,23.83
2023-04-30T03:58:56.383Z,23.84
2023-04-30T03:59:56.513Z,23.83
2023-04-30T04:00:56.227Z,23.83
2023-04-30T04:01:56.281Z,23.84
2023-04-30T04:02:56.171Z,23.84
2023-04-30T04:03:56.084Z,23.84
2023-04-30T04:04:55.958Z,23.83
2023-04-30T04:05:55.876Z,23.84
2023-04-30T04:06:55.791Z,23.83
2023-04-30T04:07:55.742Z,23.84
2023-04-30T04:08:55.648Z,23.83
2023-04-30T04:09:55.788Z,23.84
2023-04-30T04:10:55.490Z,23.84
2023-04-30T04:11:55.390Z,23.84
2023-04-30T04:12:55.301Z,23.84
2023-04-30T04:13:55.216Z,23.83
2023-04-30T04:14:55.138Z,23.84
2023-04-30T04:15:55.135Z,23.84
2023-04-30T04:16:55.037Z,23.83
2023-04-30T04:17:55.018Z,23.83
2023-04-30T04:18:54.950Z,23.84
2023-04-30T04:19:54.953Z,23.83
2023-04-30T04:20:54.719Z,23.83
2023-04-30T04:21:54.635Z,23.83
2023-04-30T04:22:54.547Z,23.83
2023-04-30T04:23:54.455Z,23.84
2023-04-30T04:24:54.374Z,23.84
2023-04-30T04:25:54.286Z,23.83
2023-04-30T04:26:54.199Z,23.84
2023-04-30T04:27:54.108Z,23.84
2023-04-30T04:28:54.020Z,23.84
2023-04-30T04:29:54.136Z,23.83
2023-04-30T04:30:53.842Z,23.84
2023-04-30T04:31:53.776Z,23.83
2023-04-30T04:32:53.697Z,23.84
2023-04-30T04:33:53.587Z,23.84
2023-04-30T04:34:53.492Z,23.84
2023-04-30T04:35:53.444Z,23.84
2023-04-30T04:36:53.377Z,23.83
2023-04-30T04:37:53.272Z,23.84
2023-04-30T04:38:53.183Z,23.84
2023-04-30T04:39:53.324Z,23.84
2023-04-30T04:40:53.053Z,23.84
2023-04-30T04:41:52.945Z,23.84
2023-04-30T04:42:52.842Z,23.84
2023-04-30T04:43:52.760Z,23.84
2023-04-30T04:44:52.705Z,23.84
2023-04-30T04:45:52.683Z,23.84
2023-04-30T04:46:52.569Z,23.84
2023-04-30T04:47:52.550Z,23.84
2023-04-30T04:48:52.379Z,23.84
2023-04-30T04:49:52.463Z,23.84
2023-04-30T04:50:52.212Z,23.84
2023-04-30T04:51:52.126Z,23.84
2023-04-30T04:52:52.034Z,23.84
2023-04-30T04:53:51.948Z,23.84
2023-04-30T04:54:51.878Z,23.83
2023-04-30T04:55:51.776Z,23.84
2023-04-30T04:56:51.700Z,23.84
2023-04-30T04:57:51.718Z,23.84
2023-04-30T04:58:51.610Z,23.84
2023-04-30T04:59:51.628Z,23.84
2023-04-30T05:00:51.444Z,23.84
2023-04-30T05:01:51.382Z,23.84
2023-04-30T05:02:51.326Z,23.84
2023-04-30T05:03:51.257Z,23.84
2023-04-30T05:04:51.108Z,23.84
2023-04-30T05:05:51.001Z,23.84
2023-04-30T05:06:50.955Z,23.84
2023-04-30T05:07:50.860Z,23.84
2023-04-30T05:08:50.775Z,23.84
2023-04-30T05:09:50.697Z,23.84
2023-04-30T05:10:50.608Z,23.84
2023-04-30T05:11:50.546Z,23.84
2023-04-30T05:12:50.457Z,23.84
2023-04-30T05:13:50.371Z,23.84
2023-04-30T05:14:50.288Z,23.84
2023-04-30T05:15:50.234Z,23.84
2023-04-30T05:16:50.116Z,23.84
2023-04-30T05:17:50.074Z,23.83
2023-04-30T05:18:49.925Z,23.84
2023-04-30T05:19:49.832Z,23.84
2023-04-30T05:20:49.741Z,23.84
2023-04-30T05:21:49.657Z,23.84
2023-04-30T05:22:49.571Z,23.84
2023-04-30T05:23:49.484Z,23.84
2023-04-30T05:24:49.387Z,23.84
2023-04-30T05:25:49.296Z,23.84
2023-04-30T05:26:49.255Z,23.84
2023-04-30T05:27:49.166Z,23.84
2023-04-30T05:28:49.065Z,23.84
2023-04-30T05:29:48.980Z,23.84
2023-04-30T05:30:48.901Z,23.84
2023-04-30T05:31:48.933Z,23.84
2023-04-30T05:32:48.806Z,23.84
2023-04-30T05:33:48.639Z,23.84
2023-04-30T05:34:48.545Z,23.84
2023-04-30T05:35:48.457Z,23.84
2023-04-30T05:36:48.381Z,23.84
2023-04-30T05:37:48.277Z,23.84
2023-04-30T05:38:48.205Z,23.84
2023-04-30T05:39:48.100Z,23.84
2023-04-30T05:40:48.023Z,23.84
2023-04-30T05:41:48.984Z,23.84
2023-04-30T05:42:47.822Z,23.84
2023-04-30T05:43:47.732Z,23.85
2023-04-30T05:44:47.657Z,23.85
2023-04-30T05:45:47.599Z,23.84
2023-04-30T05:46:47.478Z,23.84
2023-04-30T05:47:47.411Z,23.85
2023-04-30T05:48:47.295Z,23.84
2023-04-30T05:49:47.212Z,23.85
2023-04-30T05:50:47.153Z,23.85
2023-04-30T05:51:47.066Z,23.85
2023-04-30T05:52:46.974Z,23.85
2023-04-30T05:53:46.886Z,23.84
2023-04-30T05:54:48.723Z,23.85
2023-04-30T05:55:46.690Z,23.85
2023-04-30T05:56:46.602Z,23.85
2023-04-30T05:57:46.496Z,23.85
2023-04-30T05:58:46.389Z,23.85
2023-04-30T05:59:46.281Z,23.85
2023-04-30T06:00:46.227Z,23.85
2023-04-30T06:01:46.101Z,23.85
2023-04-30T06:02:45.993Z,23.85
2023-04-30T06:03:45.863Z,23.86
2023-04-30T06:04:45.776Z,23.85
2023-04-30T06:05:45.692Z,23.85
2023-04-30T06:06:45.719Z,23.85
2023-04-30T06:07:45.456Z,23.85
2023-04-30T06:08:45.526Z,23.85
2023-04-30T06:09:45.246Z,23.86
2023-04-30T06:10:45.137Z,23.85
2023-04-30T06:11:45.034Z,23.85
2023-04-30T06:12:44.929Z,23.86
2023-04-30T06:13:44.830Z,23.85
2023-04-30T06:14:44.707Z,23.86
2023-04-30T06:15:44.600Z,23.86
2023-04-30T06:16:44.534Z,23.86
2023-04-30T06:17:44.390Z,23.86
2023-04-30T06:18:44.266Z,23.86
2023-04-30T06:19:44.155Z,23.86
2023-04-30T06:20:44.061Z,23.86
2023-04-30T06:21:43.948Z,23.86
2023-04-30T06:22:43.843Z,23.86
2023-04-30T06:23:43.727Z,23.86
2023-04-30T06:24:43.623Z,23.87
2023-04-30T06:25:43.523Z,23.86
2023-04-30T06:26:43.423Z,23.86
2023-04-30T06:27:43.329Z,23.87
2023-04-30T06:28:43.208Z,23.86
2023-04-30T06:29:43.101Z,23.86
2023-04-30T06:30:43.109Z,23.86
2023-04-30T06:31:42.904Z,23.87
2023-04-30T06:32:42.826Z,23.86
2023-04-30T06:33:42.687Z,23.86
2023-04-30T06:34:42.581Z,23.87
2023-04-30T06:35:42.479Z,23.86
2023-04-30T06:36:42.373Z,23.87
2023-04-30T06:37:42.261Z,23.86
2023-04-30T06:38:42.153Z,23.86
2023-04-30T06:39:42.058Z,23.86
2023-04-30T06:40:41.954Z,23.86
2023-04-30T06:41:41.855Z,23.87
2023-04-30T06:42:41.759Z,23.86
2023-04-30T06:43:41.651Z,23.87
2023-04-30T06:44:41.577Z,23.87
2023-04-30T06:45:41.456Z,23.87
2023-04-30T06:46:41.405Z,23.86
2023-04-30T06:47:41.282Z,23.86
2023-04-30T06:48:41.165Z,23.87
2023-04-30T06:49:41.056Z,23.87
2023-04-30T06:50:40.951Z,23.86
2023-04-30T06:51:40.852Z,23.87
2023-04-30T06:52:40.763Z,23.87
2023-04-30T06:53:40.663Z,23.87
2023-04-30T06:54:40.560Z,23.87
2023-04-30T06:55:40.453Z,23.87
2023-04-30T06:56:40.356Z,23.87
2023-04-30T06:57:40.265Z,23.87
2023-04-30T06:58:40.163Z,23.88
2023-04-30T06:59:40.063Z,23.87
2023-04-30T07:00:39.969Z,23.87
2023-04-30T07:01:39.921Z,23.86
2023-04-30T07:02:39.868Z,23.87
2023-04-30T07:03:39.849Z,23.87
2023-04-30T07:04:39.623Z,23.87
2023-04-30T07:05:39.502Z,23.88
2023-04-30T07:06:39.517Z,23.87
2023-04-30T07:07:39.323Z,23.88
2023-04-30T07:08:39.214Z,23.88
2023-04-30T07:09:39.128Z,23.88
2023-04-30T07:10:39.021Z,23.88
2023-04-30T07:11:38.930Z,23.88
2023-04-30T07:12:38.832Z,23.89
2023-04-30T07:13:38.748Z,23.88
2023-04-30T07:14:38.630Z,23.88
2023-04-30T07:15:38.556Z,23.89
2023-04-30T07:16:38.433Z,23.89
2023-04-30T07:17:38.367Z,23.88
2023-04-30T07:18:38.241Z,23.88
2023-04-30T07:19:38.155Z,23.89
2023-04-30T07:20:38.033Z,23.89
2023-04-30T07:21:37.928Z,23.89
2023-04-30T07:22:37.838Z,23.90
2023-04-30T07:23:37.730Z,23.89
2023-04-30T07:24:37.628Z,23.89
2023-04-30T07:25:37.526Z,23.89
2023-04-30T07:26:37.435Z,23.89
2023-04-30T07:27:37.330Z,23.89
2023-04-30T07:28:37.221Z,23.90
2023-04-30T07:29:37.114Z,23.90
2023-04-30T07:30:37.004Z,23.90
2023-04-30T07:31:36.937Z,23.90
2023-04-30T07:32:36.845Z,23.90
2023-04-30T07:33:36.712Z,23.91
2023-04-30T07:34:36.618Z,23.90
2023-04-30T07:35:36.512Z,23.91
2023-04-30T07:36:36.412Z,23.91
2023-04-30T07:37:36.618Z,23.91
2023-04-30T07:38:36.205Z,23.92
2023-04-30T07:39:36.117Z,23.92
2023-04-30T07:40:36.674Z,23.92
2023-04-30T07:41:35.914Z,23.92
2023-04-30T07:42:35.812Z,23.92
2023-04-30T07:43:35.715Z,23.92
2023-04-30T07:44:35.625Z,23.91
2023-04-30T07:45:35.514Z,23.91
2023-04-30T07:46:35.485Z,23.91
2023-04-30T07:47:35.324Z,23.91
2023-04-30T07:48:35.198Z,23.91
2023-04-30T07:49:35.105Z,23.91
2023-04-30T07:50:35.016Z,23.91
2023-04-30T07:51:34.905Z,23.92
2023-04-30T07:52:34.813Z,23.92
2023-04-30T07:53:34.692Z,23.92
2023-04-30T07:54:34.594Z,23.93
2023-04-30T07:55:34.517Z,23.92
2023-04-30T07:56:34.391Z,23.92
2023-04-30T07:57:34.328Z,23.92
2023-04-30T07:58:34.246Z,23.92
2023-04-30T07:59:34.157Z,23.93
2023-04-30T08:00:34.084Z,23.93
2023-04-30T08:01:34.087Z,23.93
2023-04-30T08:02:34.027Z,23.93
2023-04-30T08:03:33.924Z,23.94
2023-04-30T08:04:33.940Z,23.93
2023-04-30T08:05:33.639Z,23.94
2023-04-30T08:06:33.591Z,23.94
2023-04-30T08:07:33.459Z,23.94
2023-04-30T08:08:33.369Z,23.94
2023-04-30T08:09:33.284Z,23.94
2023-04-30T08:10:33.261Z,23.94
2023-04-30T08:11:33.160Z,23.94
2023-04-30T08:12:33.068Z,23.95
2023-04-30T08:13:32.970Z,23.94
2023-04-30T08:14:32.886Z,23.94
2023-04-30T08:15:32.882Z,23.94
2023-04-30T08:16:32.708Z,23.94
2023-04-30T08:17:32.653Z,23.95
2023-04-30T08:18:32.563Z,23.94
2023-04-30T08:19:32.472Z,23.95
2023-04-30T08:20:32.374Z,23.95
2023-04-30T08:21:32.292Z,23.95
2023-04-30T08:22:32.193Z,23.95
2023-04-30T08:23:32.096Z,23.96
2023-04-30T08:24:32.000Z,23.96
2023-04-30T08:25:31.898Z,23.96
2023-04-30T08:26:31.821Z,23.96
2023-04-30T08:27:31.728Z,23.96
2023-04-30T08:28:31.620Z,23.96
2023-04-30T08:29:31.524Z,23.96
2023-04-30T08:30:31.443Z,23.96
2023-04-30T08:31:31.467Z,23.95
2023-04-30T08:32:31.302Z,23.96
2023-04-30T08:33:31.152Z,23.96
2023-04-30T08:34:31.078Z,23.96
2023-04-30T08:35:31.038Z,23.96
2023-04-30T08:36:30.891Z,23.97
2023-04-30T08:37:30.804Z,23.97
2023-04-30T08:38:30.717Z,23.96
2023-04-30T08:39:30.623Z,23.97
2023-04-30T08:40:49.397Z,23.97
2023-04-30T08:41:31.425Z,23.97
2023-04-30T08:42:30.296Z,23.97
2023-04-30T08:43:30.193Z,23.98
2023-04-30T08:44:30.076Z,23.97
2023-04-30T08:45:29.990Z,23.97
2023-04-30T08:46:29.910Z,23.98
2023-04-30T08:47:29.808Z,23.98
2023-04-30T08:48:29.637Z,23.99
2023-04-30T08:49:29.527Z,23.98
2023-04-30T08:50:29.487Z,23.98
2023-04-30T08:51:29.325Z,23.99
2023-04-30T08:52:29.261Z,23.99
2023-04-30T08:53:29.128Z,23.99
2023-04-30T08:54:29.063Z,24.00
2023-04-30T08:55:28.905Z,23.99
2023-04-30T08:56:28.807Z,23.99
2023-04-30T08:57:28.710Z,24.00
2023-04-30T08:58:28.598Z,24.00
2023-04-30T08:59:28.497Z,24.00
2023-04-30T09:00:28.390Z,24.01
2023-04-30T09:01:28.312Z,24.01
2023-04-30T09:02:28.292Z,24.02
2023-04-30T09:03:28.192Z,24.02
2023-04-30T09:04:27.976Z,24.02
2023-04-30T09:05:27.878Z,24.03
2023-04-30T09:06:27.813Z,24.04
2023-04-30T09:07:27.668Z,24.04
2023-04-30T09:08:27.560Z,24.04
2023-04-30T09:09:27.454Z,24.04
2023-04-30T09:10:27.353Z,24.05
2023-04-30T09:11:27.245Z,24.05
2023-04-30T09:12:27.165Z,24.06
2023-04-30T09:13:27.023Z,24.07
2023-04-30T09:14:26.965Z,24.07
2023-04-30T09:15:26.869Z,24.08
2023-04-30T09:16:26.932Z,24.09
2023-04-30T09:17:26.742Z,24.10
2023-04-30T09:18:26.603Z,24.11
2023-04-30T09:19:26.654Z,24.10
2023-04-30T09:20:26.600Z,24.11
2023-04-30T09:21:26.548Z,24.13
2023-04-30T09:22:26.447Z,24.13
2023-04-30T09:23:26.357Z,24.14
2023-04-30T09:24:26.275Z,24.15
2023-04-30T09:25:26.168Z,24.15
2023-04-30T09:26:26.169Z,24.16
2023-04-30T09:27:26.081Z,24.17
2023-04-30T09:28:25.991Z,24.18
2023-04-30T09:29:25.893Z,24.19
2023-04-30T09:30:25.792Z,24.19
2023-04-30T09:31:25.715Z,24.19
2023-04-30T09:32:25.733Z,24.18
2023-04-30T09:33:25.730Z,24.19
2023-04-30T09:34:25.597Z,24.19
2023-04-30T09:35:25.498Z,24.19
2023-04-30T09:36:25.398Z,24.21
2023-04-30T09:37:25.305Z,24.20
2023-04-30T09:38:25.221Z,24.20
2023-04-30T09:39:25.178Z,24.20
2023-04-30T09:40:25.187Z,24.20
2023-04-30T09:41:25.092Z,24.20
2023-04-30T09:42:24.987Z,24.21
2023-04-30T09:43:24.902Z,24.21
2023-04-30T09:44:24.792Z,24.20
2023-04-30T09:45:24.714Z,24.20
2023-04-30T09:46:24.625Z,24.21
2023-04-30T09:47:24.511Z,24.21
2023-04-30T09:48:24.470Z,24.21
2023-04-30T09:49:24.335Z,24.21
2023-04-30T09:50:24.243Z,24.22
2023-04-30T09:51:24.172Z,24.22
2023-04-30T09:52:24.068Z,24.22
2023-04-30T09:53:23.971Z,24.22
2023-04-30T09:54:23.883Z,24.21
2023-04-30T09:55:23.783Z,24.22
2023-04-30T09:56:23.672Z,24.23
2023-04-30T09:57:23.666Z,24.22
2023-04-30T09:58:23.558Z,24.23
2023-04-30T09:59:23.457Z,24.23
2023-04-30T10:00:23.356Z,24.22
2023-04-30T10:01:23.350Z,24.22
2023-04-30T10:02:23.322Z,24.22
2023-04-30T10:03:23.030Z,24.22
2023-04-30T10:04:22.942Z,24.22
2023-04-30T10:05:22.833Z,24.22
2023-04-30T10:06:22.757Z,24.22
2023-04-30T10:07:22.994Z,24.23
2023-04-30T10:08:22.523Z,24.22
2023-04-30T10:09:22.436Z,24.22
2023-04-30T10:10:22.331Z,24.22
2023-04-30T10:11:22.227Z,24.23
2023-04-30T10:12:22.165Z,24.23
2023-04-30T10:13:22.085Z,24.23
2023-04-30T10:14:22.137Z,24.23
2023-04-30T10:15:21.902Z,24.23
2023-04-30T10:16:21.841Z,24.23
2023-04-30T10:17:21.707Z,24.23
2023-04-30T10:18:21.584Z,24.23
2023-04-30T10:19:21.507Z,24.24
2023-04-30T10:20:21.397Z,24.24
2023-04-30T10:21:21.291Z,24.25
2023-04-30T10:22:21.188Z,24.25
2023-04-30T10:23:21.182Z,24.26
2023-04-30T10:24:21.165Z,24.27
2023-04-30T10:25:21.077Z,24.28
2023-04-30T10:26:20.972Z,24.29
2023-04-30T10:27:20.860Z,24.29
2023-04-30T10:28:20.758Z,24.30
2023-04-30T10:29:20.665Z,24.30
2023-04-30T10:30:20.567Z,24.32
2023-04-30T10:31:20.460Z,24.33
2023-04-30T10:32:20.515Z,24.33
2023-04-30T10:33:20.321Z,24.33
2023-04-30T10:34:20.157Z,24.34
2023-04-30T10:35:20.143Z,24.35
2023-04-30T10:36:20.126Z,24.35
2023-04-30T10:37:20.115Z,24.36
2023-04-30T10:38:20.095Z,24.36
2023-04-30T10:39:20.019Z,24.36
2023-04-30T10:40:19.994Z,24.37
2023-04-30T10:41:19.935Z,24.37
2023-04-30T10:42:19.840Z,24.37
2023-04-30T10:43:19.772Z,24.38
2023-04-30T10:44:19.736Z,24.38
2023-04-30T10:45:19.681Z,24.38
2023-04-30T10:46:19.671Z,24.38
2023-04-30T10:47:19.612Z,24.37
2023-04-30T10:48:19.574Z,24.38
2023-04-30T10:49:19.502Z,24.38
2023-04-30T10:50:19.458Z,24.38
2023-04-30T10:51:19.447Z,24.39
2023-04-30T10:52:19.414Z,24.38
2023-04-30T10:53:19.405Z,24.39
2023-04-30T10:54:19.364Z,24.40
2023-04-30T10:55:19.356Z,24.41
2023-04-30T10:56:19.299Z,24.41
2023-04-30T10:57:19.253Z,24.42
2023-04-30T10:58:19.215Z,24.42
2023-04-30T10:59:19.167Z,24.43
2023-04-30T11:00:19.111Z,24.42
2023-04-30T11:01:19.127Z,24.44
2023-04-30T11:02:19.045Z,24.45
2023-04-30T11:03:19.019Z,24.46
2023-04-30T11:04:19.028Z,24.47
2023-04-30T11:05:19.061Z,24.47
2023-04-30T11:06:18.938Z,24.47
2023-04-30T11:07:18.888Z,24.48
2023-04-30T11:08:18.852Z,24.48
2023-04-30T11:09:18.812Z,24.47
2023-04-30T11:10:18.786Z,24.47
2023-04-30T11:11:18.770Z,24.47
2023-04-30T11:12:18.699Z,24.47
2023-04-30T11:13:18.671Z,24.46
2023-04-30T11:14:18.628Z,24.46
2023-04-30T11:15:18.588Z,24.45
2023-04-30T11:16:18.584Z,24.46
2023-04-30T11:17:18.603Z,24.45
2023-04-30T11:18:18.466Z,24.45
2023-04-30T11:19:18.438Z,24.45
2023-04-30T11:20:18.408Z,24.45
2023-04-30T11:21:18.384Z,24.44
2023-04-30T11:22:18.356Z,24.44
2023-04-30T11:23:28.196Z,24.44
2023-04-30T11:24:19.197Z,24.44
2023-04-30T11:25:18.089Z,24.45
2023-04-30T11:26:17.986Z,24.44
2023-04-30T11:27:17.889Z,24.44
2023-04-30T11:28:17.795Z,24.44
2023-04-30T11:29:17.897Z,24.44
2023-04-30T11:30:17.569Z,24.44
2023-04-30T11:31:17.526Z,24.45
2023-04-30T11:32:17.408Z,24.45
2023-04-30T11:33:17.372Z,24.45
2023-04-30T11:34:17.340Z,24.45
2023-04-30T11:35:17.382Z,24.45
2023-04-30T11:36:17.292Z,24.46
2023-04-30T11:37:17.255Z,24.46
2023-04-30T11:38:17.224Z,24.45
2023-04-30T11:39:17.193Z,24.45
2023-04-30T11:40:17.159Z,24.44
2023-04-30T11:41:17.135Z,24.45
2023-04-30T11:42:17.094Z,24.45
2023-04-30T11:43:17.045Z,24.45
2023-04-30T11:44:17.017Z,24.45
2023-04-30T11:45:16.979Z,24.45
2023-04-30T11:46:16.973Z,24.45
2023-04-30T11:47:16.900Z,24.45
2023-04-30T11:48:16.876Z,24.45
2023-04-30T11:49:16.832Z,24.45
2023-04-30T11:50:16.804Z,24.45
2023-04-30T11:51:16.772Z,24.44
2023-04-30T11:52:16.734Z,24.44
2023-04-30T11:53:16.707Z,24.45
2023-04-30T11:54:16.687Z,24.44
2023-04-30T11:55:16.642Z,24.45
2023-04-30T11:56:16.601Z,24.46
2023-04-30T11:57:16.561Z,24.44
2023-04-30T11:58:16.539Z,24.44
2023-04-30T11:59:16.504Z,24.44
2023-04-30T12:00:16.466Z,24.44
2023-04-30T12:01:16.434Z,24.44
2023-04-30T12:02:16.460Z,24.44
2023-04-30T12:03:16.425Z,24.43
2023-04-30T12:04:16.335Z,24.43
2023-04-30T12:05:16.276Z,24.43
2023-04-30T12:06:16.261Z,24.43
2023-04-30T12:07:16.199Z,24.43
2023-04-30T12:08:16.176Z,24.43
2023-04-30T12:09:16.147Z,24.43
2023-04-30T12:10:16.107Z,24.43
2023-04-30T12:11:16.079Z,24.43
2023-04-30T12:12:16.022Z,24.43
2023-04-30T12:13:15.996Z,24.42
2023-04-30T12:14:15.953Z,24.43
2023-04-30T12:15:15.912Z,24.43
2023-04-30T12:16:15.909Z,24.42
2023-04-30T12:17:15.796Z,24.42
2023-04-30T12:18:15.769Z,24.43
2023-04-30T12:19:15.726Z,24.43
2023-04-30T12:20:15.661Z,24.43
2023-04-30T12:21:15.628Z,24.43
2023-04-30T12:22:15.584Z,24.43
2023-04-30T12:23:15.550Z,24.43
2023-04-30T12:24:15.507Z,24.43
2023-04-30T12:25:15.446Z,24.43
2023-04-30T12:26:15.416Z,24.43
2023-04-30T12:27:15.373Z,24.43
2023-04-30T12:28:15.319Z,24.44
2023-04-30T12:29:15.748Z,24.43
2023-04-30T12:30:15.193Z,24.43
2023-04-30T12:31:15.162Z,24.43
2023-04-30T12:32:15.158Z,24.43
2023-04-30T12:33:15.157Z,24.42
2023-04-30T12:34:15.070Z,24.43
2023-04-30T12:35:15.023Z,24.43
2023-04-30T12:36:14.986Z,24.43
2023-04-30T12:37:14.945Z,24.44
2023-04-30T12:38:14.895Z,24.44
2023-04-30T12:39:14.855Z,24.45
2023-04-30T12:40:14.854Z,24.44
2023-04-30T12:41:14.782Z,24.44
2023-04-30T12:42:14.736Z,24.44
2023-04-30T12:43:14.704Z,24.44
2023-04-30T12:44:14.663Z,24.45
2023-04-30T12:45:14.607Z,24.45
2023-04-30T12:46:14.643Z,24.44
2023-04-30T12:47:14.536Z,24.45
2023-04-30T12:48:14.613Z,24.44
2023-04-30T12:49:14.481Z,24.44
2023-04-30T12:50:14.421Z,24.44
2023-04-30T12:51:14.378Z,24.44